createdAt,value
2023-03-15T00:00:15.974Z,77.07
2023-03-15T00:03:04.221Z,77.08
2023-03-15T00:05:32.113Z,76.95
2023-03-15T00:08:04.480Z,77.00
2023-03-15T00:10:35.275Z,76.82
2023-03-15T00:13:02.498Z,76.85
2023-03-15T00:15:52.667Z,76.86
2023-03-15T00:18:21.783Z,76.84
2023-03-15T00:20:49.483Z,76.77
2023-03-15T00:23:17.713Z,76.66
2023-03-15T00:25:49.638Z,76.75
2023-03-15T00:28:20.459Z,76.68
2023-03-15T00:30:47.870Z,76.61
2023-03-15T00:33:16.911Z,76.65
2023-03-15T00:35:53.925Z,76.84
2023-03-15T00:38:21.988Z,76.94
2023-03-15T00:40:51.991Z,76.75
2023-03-15T00:43:26.891Z,75.17
2023-03-15T00:45:56.626Z,73.25
2023-03-15T00:48:27.265Z,71.83
2023-03-15T00:51:09.890Z,71.00
2023-03-15T00:53:39.245Z,70.56
2023-03-15T00:56:13.140Z,70.72
2023-03-15T00:58:43.583Z,71.05
2023-03-15T01:01:14.040Z,71.77
2023-03-15T01:03:50.929Z,72.39
2023-03-15T01:06:22.603Z,73.07
2023-03-15T01:09:10.101Z,73.55
2023-03-15T01:11:40.463Z,73.72
2023-03-15T01:14:08.919Z,74.39
2023-03-15T01:16:39.686Z,74.84
2023-03-15T01:19:27.071Z,75.66
2023-03-15T01:22:05.524Z,76.53
2023-03-15T01:24:33.089Z,77.05
2023-03-15T01:27:20.542Z,77.37
2023-03-15T01:30:09.989Z,77.69
2023-03-15T01:32:59.377Z,77.93
2023-03-15T01:35:26.732Z,78.07
2023-03-15T01:38:14.508Z,78.25
2023-03-15T01:40:54.694Z,78.25
2023-03-15T01:43:35.363Z,78.52
2023-03-15T01:46:27.953Z,78.45
2023-03-15T01:49:18.888Z,78.78
2023-03-15T01:52:09.806Z,78.63
2023-03-15T01:55:05.766Z,78.83
2023-03-15T01:57:57.423Z,78.99
2023-03-15T02:00:45.338Z,78.64
2023-03-15T02:03:36.719Z,78.60
2023-03-15T02:06:24.853Z,78.60
2023-03-15T02:09:16.039Z,78.31
2023-03-15T02:12:05.630Z,78.33
2023-03-15T02:14:55.282Z,78.31
2023-03-15T02:17:40.157Z,78.36
2023-03-15T02:20:39.698Z,78.16
2023-03-15T02:23:15.143Z,78.24
2023-03-15T02:26:08.736Z,78.26
2023-03-15T02:28:56.386Z,78.05
2023-03-15T02:31:38.343Z,77.93
2023-03-15T02:34:08.954Z,77.34
2023-03-15T02:36:45.556Z,76.90
2023-03-15T02:39:20.896Z,76.67
2023-03-15T02:42:09.039Z,76.60
2023-03-15T02:44:50.676Z,76.39
2023-03-15T02:47:26.184Z,76.19
2023-03-15T02:50:14.272Z,76.28
2023-03-15T02:52:52.788Z,76.32
2023-03-15T02:55:40.366Z,76.25
2023-03-15T02:58:27.848Z,76.21
2023-03-15T03:01:09.135Z,76.30
2023-03-15T03:03:48.041Z,75.98
2023-03-15T03:06:35.452Z,75.68
2023-03-15T03:09:13.299Z,75.78
2023-03-15T03:11:48.507Z,75.98
2023-03-15T03:14:27.214Z,75.71
2023-03-15T03:17:14.569Z,75.79
2023-03-15T03:19:42.036Z,75.81
2023-03-15T03:22:13.411Z,75.73
2023-03-15T03:25:01.145Z,75.82
2023-03-15T03:27:48.756Z,75.92
2023-03-15T03:30:36.288Z,75.91
2023-03-15T03:33:24.239Z,76.00
2023-03-15T03:36:13.312Z,76.12
2023-03-15T03:39:01.748Z,76.06
2023-03-15T03:41:50.264Z,76.11
2023-03-15T03:44:37.612Z,76.14
2023-03-15T03:47:25.239Z,76.32
2023-03-15T03:50:13.967Z,76.10
2023-03-15T03:53:01.457Z,76.30
2023-03-15T03:55:48.755Z,76.32
2023-03-15T03:58:36.820Z,76.25
2023-03-15T04:01:24.072Z,76.22
2023-03-15T04:04:10.091Z,76.09
2023-03-15T04:06:57.578Z,76.12
2023-03-15T04:09:45.539Z,76.03
2023-03-15T04:12:33.584Z,76.15
2023-03-15T04:15:22.978Z,76.09
2023-03-15T04:18:10.246Z,76.07
2023-03-15T04:20:56.034Z,76.08
2023-03-15T04:23:43.343Z,75.92
2023-03-15T04:26:31.132Z,75.74
2023-03-15T04:29:18.548Z,75.60
2023-03-15T04:32:21.561Z,75.54
2023-03-15T04:35:12.053Z,75.46
2023-03-15T04:38:04.153Z,75.33
2023-03-15T04:41:00.217Z,75.36
2023-03-15T04:43:46.593Z,75.23
2023-03-15T04:46:49.533Z,75.25
2023-03-15T04:49:37.005Z,74.91
2023-03-15T04:52:24.916Z,74.80
2023-03-15T04:55:19.080Z,74.32
2023-03-15T04:58:06.366Z,74.36
2023-03-15T05:01:12.576Z,73.97
2023-03-15T05:03:45.727Z,73.61
2023-03-15T05:06:39.278Z,73.36
2023-03-15T05:09:24.851Z,73.11
2023-03-15T05:12:13.725Z,73.46
2023-03-15T05:15:00.248Z,73.33
2023-03-15T05:17:55.214Z,73.35
2023-03-15T05:20:41.062Z,73.34
2023-03-15T05:23:27.529Z,73.27
2023-03-15T05:26:14.858Z,73.10
2023-03-15T05:29:00.930Z,73.03
2023-03-15T05:32:00.627Z,72.73
2023-03-15T05:34:48.646Z,72.22
2023-03-15T05:37:34.141Z,71.97
2023-03-15T05:40:21.881Z,72.07
2023-03-15T05:43:15.502Z,72.08
2023-03-15T05:46:01.175Z,72.13
2023-03-15T05:48:51.572Z,72.27
2023-03-15T05:51:47.753Z,72.05
2023-03-15T05:54:37.757Z,71.77
2023-03-15T05:57:34.278Z,71.91
2023-03-15T06:00:39.727Z,72.06
2023-03-15T06:03:27.695Z,71.84
2023-03-15T06:06:10.069Z,71.78
2023-03-15T06:08:57.504Z,71.42
2023-03-15T06:11:27.182Z,71.21
2023-03-15T06:13:54.253Z,70.98
2023-03-15T06:16:39.893Z,70.92
2023-03-15T06:19:17.187Z,70.91
2023-03-15T06:21:54.720Z,70.62
2023-03-15T06:24:42.232Z,70.41
2023-03-15T06:27:30.561Z,70.39
2023-03-15T06:30:18.674Z,70.36
2023-03-15T06:32:59.630Z,70.35
2023-03-15T06:35:48.202Z,70.25
2023-03-15T06:38:35.890Z,69.99
2023-03-15T06:41:17.159Z,69.88
2023-03-15T06:44:04.696Z,69.63
2023-03-15T06:46:52.096Z,69.32
2023-03-15T06:49:39.825Z,69.35
2023-03-15T06:52:17.508Z,69.32
2023-03-15T06:54:55.034Z,69.24
2023-03-15T06:57:22.625Z,69.29
2023-03-15T07:00:00.083Z,68.81
2023-03-15T07:02:47.563Z,68.60
2023-03-15T07:05:15.693Z,68.59
2023-03-15T07:07:55.689Z,68.43
2023-03-15T07:10:33.615Z,68.31
2023-03-15T07:13:21.964Z,68.15
2023-03-15T07:16:00.182Z,68.21
2023-03-15T07:18:47.742Z,68.25
2023-03-15T07:21:18.601Z,68.11
2023-03-15T07:24:06.417Z,68.11
2023-03-15T07:26:56.655Z,68.02
2023-03-15T07:29:44.048Z,67.52
2023-03-15T07:32:31.232Z,67.07
2023-03-15T07:35:19.263Z,67.05
2023-03-15T07:37:57.680Z,66.91
2023-03-15T07:40:37.908Z,66.87
2023-03-15T07:43:24.518Z,66.79
2023-03-15T07:46:09.861Z,66.21
2023-03-15T07:48:57.295Z,65.75
2023-03-15T07:51:35.653Z,65.44
2023-03-15T07:54:16.712Z,65.49
2023-03-15T07:57:04.128Z,65.30
2023-03-15T07:59:52.706Z,64.77
2023-03-15T08:02:40.651Z,64.47
2023-03-15T08:05:29.273Z,64.36
2023-03-15T08:07:56.780Z,64.43
2023-03-15T08:10:45.030Z,64.12
2023-03-15T08:13:19.507Z,63.85
2023-03-15T08:16:09.538Z,62.42
2023-03-15T08:18:56.922Z,61.20
2023-03-15T08:21:45.829Z,60.10
2023-03-15T08:24:24.102Z,58.62
2023-03-15T08:26:51.966Z,56.47
2023-03-15T08:29:39.360Z,55.70
2023-03-15T08:32:25.194Z,54.40
2023-03-15T08:34:55.299Z,53.21
2023-03-15T08:37:32.660Z,53.80
2023-03-15T08:40:09.589Z,54.52
2023-03-15T08:42:46.481Z,54.68
2023-03-15T08:45:14.982Z,54.77
2023-03-15T08:47:45.110Z,55.20
2023-03-15T08:50:33.398Z,55.61
2023-03-15T08:53:21.015Z,55.00
2023-03-15T08:56:09.410Z,55.04
2023-03-15T08:58:46.886Z,55.38
2023-03-15T09:01:19.166Z,54.57
2023-03-15T09:04:05.883Z,54.05
2023-03-15T09:06:43.476Z,53.75
2023-03-15T09:09:10.690Z,53.42
2023-03-15T09:11:37.862Z,53.15
2023-03-15T09:14:15.383Z,52.91
2023-03-15T09:16:45.176Z,52.75
2023-03-15T09:19:33.013Z,52.65
2023-03-15T09:22:34.909Z,52.41
2023-03-15T09:25:26.960Z,52.68
2023-03-15T09:28:14.901Z,53.22
2023-03-15T09:30:52.409Z,52.70
2023-03-15T09:33:39.734Z,52.49
2023-03-15T09:36:27.791Z,52.38
2023-03-15T09:39:06.075Z,51.93
2023-03-15T09:41:44.501Z,51.76
2023-03-15T09:44:49.383Z,51.04
2023-03-15T09:47:42.134Z,50.80
2023-03-15T09:50:21.860Z,50.98
2023-03-15T09:53:23.747Z,51.11
2023-03-15T09:56:02.772Z,50.68
2023-03-15T09:58:35.982Z,50.11
2023-03-15T10:01:07.407Z,50.12
2023-03-15T10:03:42.663Z,50.43
2023-03-15T10:06:17.898Z,50.10
2023-03-15T10:08:48.737Z,48.57
2023-03-15T10:11:21.980Z,48.09
2023-03-15T10:14:01.071Z,45.80
2023-03-15T10:16:40.041Z,44.83
2023-03-15T10:19:15.081Z,44.61
2023-03-15T10:21:51.525Z,43.85
2023-03-15T10:24:24.734Z,43.71
2023-03-15T10:26:54.252Z,43.63
2023-03-15T10:29:24.316Z,43.12
2023-03-15T10:31:53.004Z,42.85
2023-03-15T10:34:20.313Z,41.66
2023-03-15T10:36:54.506Z,41.73
2023-03-15T10:39:22.064Z,41.92
2023-03-15T10:41:56.865Z,42.52
2023-03-15T10:44:42.684Z,42.31
2023-03-15T10:47:23.446Z,42.85
2023-03-15T10:50:02.178Z,42.56
2023-03-15T10:52:38.901Z,42.55
2023-03-15T10:55:22.735Z,43.78
2023-03-15T10:57:57.203Z,43.35
2023-03-15T11:00:32.003Z,43.40
2023-03-15T11:03:08.208Z,43.93
2023-03-15T11:05:44.008Z,44.08
2023-03-15T11:08:15.866Z,44.54
2023-03-15T11:10:44.765Z,44.72
2023-03-15T11:13:20.757Z,45.40
2023-03-15T11:16:04.756Z,45.87
2023-03-15T11:18:58.345Z,45.55
2023-03-15T11:21:31.077Z,45.12
2023-03-15T11:24:01.231Z,44.71
2023-03-15T11:26:36.036Z,43.91
2023-03-15T11:29:09.186Z,43.71
2023-03-15T11:31:39.275Z,43.66
2023-03-15T11:34:25.470Z,43.17
2023-03-15T11:37:07.571Z,43.39
2023-03-15T11:39:58.802Z,43.79
2023-03-15T11:42:34.904Z,43.39
2023-03-15T11:45:20.257Z,43.15
2023-03-15T11:47:53.385Z,42.59
2023-03-15T11:50:21.587Z,43.00
2023-03-15T11:52:55.227Z,42.98
2023-03-15T11:55:28.678Z,43.26
2023-03-15T11:57:59.222Z,43.35
2023-03-15T12:00:55.063Z,43.75
2023-03-15T12:03:44.427Z,43.60
2023-03-15T12:06:42.148Z,43.89
2023-03-15T12:09:56.627Z,43.88
2023-03-15T12:12:46.177Z,43.94
2023-03-15T12:15:50.300Z,44.23
2023-03-15T12:18:33.461Z,44.67
2023-03-15T12:21:13.265Z,45.32
2023-03-15T12:24:00.591Z,44.76
2023-03-15T12:26:51.503Z,44.93
2023-03-15T12:29:26.038Z,44.73
2023-03-15T12:31:58.036Z,44.90
2023-03-15T12:34:46.854Z,44.82
2023-03-15T12:37:26.977Z,45.12
2023-03-15T12:40:01.572Z,45.11
2023-03-15T12:43:11.646Z,45.03
2023-03-15T12:45:58.962Z,45.20
2023-03-15T12:48:31.305Z,45.44
2023-03-15T12:51:33.832Z,45.60
2023-03-15T12:54:22.241Z,45.61
2023-03-15T12:56:54.653Z,45.58
2023-03-15T12:59:42.086Z,45.37
2023-03-15T13:02:42.582Z,45.13
2023-03-15T13:05:27.326Z,44.80
2023-03-15T13:08:22.752Z,44.60
2023-03-15T13:11:21.520Z,44.88
2023-03-15T13:14:20.084Z,45.17
2023-03-15T13:17:09.149Z,44.76
2023-03-15T13:19:44.103Z,44.93
2023-03-15T13:22:33.921Z,44.84
2023-03-15T13:25:09.984Z,44.94
2023-03-15T13:27:51.434Z,45.43
2023-03-15T13:30:33.916Z,45.73
2023-03-15T13:33:26.943Z,45.59
2023-03-15T13:36:07.174Z,45.08
2023-03-15T13:38:55.994Z,44.98
2023-03-15T13:41:33.751Z,44.70
2023-03-15T13:44:19.739Z,45.04
2023-03-15T13:47:07.422Z,45.02
2023-03-15T13:49:57.570Z,45.24
2023-03-15T13:52:25.338Z,45.51
2023-03-15T13:54:57.078Z,45.76
2023-03-15T13:57:25.325Z,45.71
2023-03-15T14:00:19.173Z,45.96
2023-03-15T14:03:02.049Z,45.81
2023-03-15T14:05:49.384Z,45.95
2023-03-15T14:08:25.869Z,45.72
2023-03-15T14:11:10.180Z,45.48
2023-03-15T14:13:54.649Z,45.29
2023-03-15T14:16:57.282Z,45.16
2023-03-15T14:19:31.671Z,45.58
2023-03-15T14:22:01.288Z,46.04
2023-03-15T14:24:34.921Z,46.14
2023-03-15T14:27:06.090Z,46.48
2023-03-15T14:29:35.739Z,46.75
2023-03-15T14:32:05.485Z,46.99
2023-03-15T14:34:39.090Z,47.11
2023-03-15T14:37:26.721Z,47.14
2023-03-15T14:40:34.913Z,47.43
2023-03-15T14:43:12.274Z,47.44
2023-03-15T14:45:51.427Z,48.02
2023-03-15T14:48:32.762Z,48.14
2023-03-15T14:51:00.364Z,48.25
2023-03-15T14:53:50.251Z,47.86
2023-03-15T14:56:28.262Z,47.50
2023-03-15T14:59:13.718Z,47.11
2023-03-15T15:01:46.836Z,46.97
2023-03-15T15:04:37.681Z,46.69
2023-03-15T15:07:17.886Z,46.55
2023-03-15T15:09:58.355Z,46.62
2023-03-15T15:12:36.895Z,46.32
2023-03-15T15:15:20.266Z,46.07
2023-03-15T15:17:50.953Z,45.98
2023-03-15T15:20:19.126Z,46.41
2023-03-15T15:22:47.083Z,46.28
2023-03-15T15:25:19.926Z,46.62
2023-03-15T15:27:49.733Z,46.68
2023-03-15T15:30:22.575Z,46.96
2023-03-15T15:33:10.209Z,47.16
2023-03-15T15:35:49.418Z,47.37
2023-03-15T15:38:19.105Z,47.43
2023-03-15T15:40:46.629Z,47.67
2023-03-15T15:43:14.800Z,48.10
2023-03-15T15:45:42.119Z,48.20
2023-03-15T15:48:12.458Z,48.45
2023-03-15T15:50:39.822Z,48.67
2023-03-15T15:53:07.901Z,48.74
2023-03-15T15:55:57.890Z,48.97
2023-03-15T15:58:46.112Z,49.23
2023-03-15T16:01:27.487Z,48.99
2023-03-15T16:03:54.886Z,49.01
2023-03-15T16:06:43.969Z,49.21
2023-03-15T16:09:24.079Z,48.97
2023-03-15T16:12:02.235Z,49.00
2023-03-15T16:14:32.623Z,48.78
2023-03-15T16:17:23.048Z,48.91
2023-03-15T16:20:13.885Z,49.14
2023-03-15T16:22:54.679Z,49.40
2023-03-15T16:25:27.762Z,49.49
2023-03-15T16:28:15.521Z,49.71
2023-03-15T16:31:03.089Z,50.05
2023-03-15T16:33:30.599Z,50.18
2023-03-15T16:35:57.734Z,50.38
2023-03-15T16:38:45.387Z,50.61
2023-03-15T16:41:23.066Z,50.90
2023-03-15T16:44:14.881Z,51.08
2023-03-15T16:46:51.510Z,51.40
2023-03-15T16:49:21.622Z,51.47
2023-03-15T16:52:10.794Z,51.66
2023-03-15T16:54:52.011Z,51.99
2023-03-15T16:57:22.981Z,52.18
2023-03-15T17:00:00.367Z,52.55
2023-03-15T17:02:40.715Z,52.84
2023-03-15T17:05:29.819Z,53.14
2023-03-15T17:08:21.066Z,53.30
2023-03-15T17:10:49.574Z,53.69
2023-03-15T17:13:40.810Z,53.95
2023-03-15T17:16:12.062Z,54.44
2023-03-15T17:18:49.731Z,54.71
2023-03-15T17:21:21.506Z,54.91
2023-03-15T17:24:10.869Z,55.14
2023-03-15T17:26:48.769Z,55.72
2023-03-15T17:29:16.794Z,55.84
2023-03-15T17:31:45.057Z,56.10
2023-03-15T17:34:12.698Z,56.48
2023-03-15T17:36:41.151Z,56.58
2023-03-15T17:39:10.679Z,56.63
2023-03-15T17:42:00.136Z,56.93
2023-03-15T17:44:27.820Z,57.21
2023-03-15T17:47:15.846Z,57.22
2023-03-15T17:50:03.215Z,57.56
2023-03-15T17:52:54.301Z,57.63
2023-03-15T17:55:24.231Z,57.62
2023-03-15T17:57:55.741Z,57.85
2023-03-15T18:00:33.483Z,57.89
2023-03-15T18:03:22.021Z,58.10
2023-03-15T18:06:10.191Z,58.47
2023-03-15T18:08:57.689Z,58.38
2023-03-15T18:11:37.233Z,58.53
2023-03-15T18:14:24.622Z,58.68
2023-03-15T18:16:52.045Z,58.85
2023-03-15T18:19:25.506Z,58.89
2023-03-15T18:22:04.008Z,59.13
2023-03-15T18:24:40.176Z,59.31
2023-03-15T18:27:07.460Z,59.36
2023-03-15T18:29:37.829Z,59.38
2023-03-15T18:32:25.508Z,59.69
2023-03-15T18:34:56.626Z,59.71
2023-03-15T18:37:23.977Z,59.95
2023-03-15T18:40:05.393Z,60.05
2023-03-15T18:42:43.074Z,60.16
2023-03-15T18:45:23.206Z,60.30
2023-03-15T18:47:51.030Z,60.36
2023-03-15T18:50:33.880Z,60.51
2023-03-15T18:53:10.628Z,60.65
2023-03-15T18:55:57.362Z,60.67
2023-03-15T18:58:44.788Z,60.76
2023-03-15T19:01:12.340Z,60.63
2023-03-15T19:03:59.817Z,60.59
2023-03-15T19:06:47.387Z,60.64
2023-03-15T19:09:34.783Z,60.48
2023-03-15T19:12:05.061Z,60.56
2023-03-15T19:14:42.906Z,60.82
2023-03-15T19:17:28.695Z,60.70
2023-03-15T19:20:06.643Z,61.06
2023-03-15T19:22:54.438Z,61.21
2023-03-15T19:25:26.209Z,61.15
2023-03-15T19:27:57.665Z,61.23
2023-03-15T19:30:45.213Z,61.46
2023-03-15T19:33:33.062Z,61.49
2023-03-15T19:36:03.080Z,61.47
2023-03-15T19:38:51.596Z,61.68
2023-03-15T19:41:23.435Z,61.92
2023-03-15T19:44:03.414Z,61.96
2023-03-15T19:46:51.226Z,62.11
2023-03-15T19:49:21.665Z,62.12
2023-03-15T19:52:09.659Z,62.30
2023-03-15T19:54:50.172Z,62.30
2023-03-15T19:57:17.785Z,62.49
2023-03-15T19:59:45.598Z,62.48
2023-03-15T20:02:33.393Z,62.64
2023-03-15T20:05:22.637Z,62.56
2023-03-15T20:08:04.345Z,62.78
2023-03-15T20:10:40.752Z,62.88
2023-03-15T20:13:18.798Z,62.95
2023-03-15T20:16:06.636Z,62.99
2023-03-15T20:18:45.159Z,62.99
2023-03-15T20:21:15.802Z,63.03
2023-03-15T20:24:04.623Z,63.01
2023-03-15T20:26:52.882Z,63.08
2023-03-15T20:29:40.340Z,63.21
2023-03-15T20:32:28.509Z,63.18
2023-03-15T20:35:16.202Z,63.23
2023-03-15T20:38:08.348Z,63.27
2023-03-15T20:40:46.350Z,63.41
2023-03-15T20:43:33.869Z,63.43
2023-03-15T20:46:22.931Z,63.54
2023-03-15T20:48:50.226Z,63.64
2023-03-15T20:51:17.555Z,63.59
2023-03-15T20:53:54.925Z,63.74
2023-03-15T20:56:34.357Z,63.80
2023-03-15T20:59:14.547Z,63.83
2023-03-15T21:02:03.090Z,64.08
2023-03-15T21:04:33.340Z,64.09
2023-03-15T21:07:11.814Z,64.33
2023-03-15T21:09:59.235Z,64.30
2023-03-15T21:12:46.750Z,64.29
2023-03-15T21:15:34.227Z,64.50
2023-03-15T21:18:10.982Z,64.46
2023-03-15T21:21:03.692Z,64.52
2023-03-15T21:23:51.090Z,64.49
2023-03-15T21:26:32.068Z,64.64
2023-03-15T21:29:01.504Z,64.64
2023-03-15T21:31:31.978Z,64.77
2023-03-15T21:34:08.262Z,64.67
2023-03-15T21:36:55.805Z,64.76
2023-03-15T21:39:43.342Z,64.85
2023-03-15T21:42:31.056Z,64.79
2023-03-15T21:45:14.037Z,64.97
2023-03-15T21:48:01.692Z,64.96
2023-03-15T21:50:50.179Z,64.82
2023-03-15T21:53:38.735Z,64.95
2023-03-15T21:56:17.015Z,64.97
2023-03-15T21:58:46.819Z,65.07
2023-03-15T22:01:15.080Z,65.10
2023-03-15T22:03:44.473Z,65.15
2023-03-15T22:06:32.510Z,65.06
2023-03-15T22:09:19.904Z,65.01
2023-03-15T22:12:07.960Z,65.10
2023-03-15T22:14:38.473Z,65.04
2023-03-15T22:17:28.273Z,65.17
2023-03-15T22:20:18.908Z,65.16
2023-03-15T22:22:50.081Z,65.13
2023-03-15T22:25:38.877Z,65.31
2023-03-15T22:28:26.659Z,65.35
2023-03-15T22:30:57.484Z,65.44
2023-03-15T22:33:37.672Z,65.37
2023-03-15T22:36:23.495Z,65.57
2023-03-15T22:39:05.140Z,65.58
2023-03-15T22:41:45.372Z,65.75
2023-03-15T22:44:25.491Z,65.85
2023-03-15T22:47:04.096Z,65.94
2023-03-15T22:49:41.697Z,66.03
2023-03-15T22:52:29.123Z,66.11
2023-03-15T22:55:08.225Z,66.14
2023-03-15T22:57:55.480Z,66.37
2023-03-15T23:00:45.115Z,66.34
2023-03-15T23:03:32.658Z,66.54
2023-03-15T23:06:20.620Z,66.65
2023-03-15T23:09:07.994Z,66.87
2023-03-15T23:11:46.646Z,66.89
2023-03-15T23:14:34.055Z,67.22
2023-03-15T23:17:12.838Z,67.30
2023-03-15T23:20:00.384Z,67.49
2023-03-15T23:22:49.058Z,67.53
2023-03-15T23:25:40.397Z,67.53
2023-03-15T23:28:27.860Z,67.63
2023-03-15T23:31:15.409Z,67.74
2023-03-15T23:33:56.820Z,67.73
2023-03-15T23:36:45.389Z,67.78
2023-03-15T23:39:32.902Z,67.96
2023-03-15T23:42:20.498Z,67.98
2023-03-15T23:45:10.895Z,67.97
2023-03-15T23:47:58.922Z,68.15
2023-03-15T23:50:27.176Z,68.19
2023-03-15T23:53:05.294Z,68.22
2023-03-15T23:55:54.259Z,68.32
2023-03-15T23:58:41.859Z,68.21
